createdAt,value
2023-03-14T00:04:32.748Z,1.52
2023-03-14T00:09:34.466Z,0.70
2023-03-14T00:14:36.172Z,1.17
2023-03-14T00:19:37.931Z,2.78
2023-03-14T00:24:39.676Z,1.35
2023-03-14T00:29:43.308Z,1.83
2023-03-14T00:34:45.069Z,2.00
2023-03-14T00:39:46.796Z,1.50
2023-03-14T00:44:48.581Z,2.75
2023-03-14T00:49:50.618Z,2.33
2023-03-14T00:54:54.294Z,2.10
2023-03-14T00:59:56.035Z,1.85
2023-03-14T01:04:57.817Z,2.20
2023-03-14T01:09:59.667Z,1.45
2023-03-14T01:15:01.512Z,1.98
2023-03-14T01:20:05.983Z,1.75
2023-03-14T01:25:10.184Z,0.95
2023-03-14T01:30:13.283Z,1.17
2023-03-14T01:35:15.270Z,0.90
2023-03-14T01:40:18.127Z,1.20
2023-03-14T01:45:58.048Z,1.35
2023-03-14T01:51:01.751Z,1.70
2023-03-14T01:56:04.812Z,1.98
2023-03-14T02:01:08.126Z,1.63
2023-03-14T02:06:10.234Z,1.08
2023-03-14T02:11:15.526Z,1.60
2023-03-14T02:16:31.531Z,1.00
2023-03-14T02:22:07.471Z,0.80
2023-03-14T02:32:24.608Z,1.95
2023-03-14T02:37:39.745Z,0.70
2023-03-14T02:42:41.760Z,0.73
2023-03-14T02:47:59.237Z,0.30
2023-03-14T02:53:02.283Z,0.30
2023-03-14T02:58:04.707Z,0.20
2023-03-14T03:03:09.334Z,0.30
2023-03-14T03:08:11.496Z,0.15
2023-03-14T03:13:13.849Z,0.13
2023-03-14T03:18:17.021Z,0.30
2023-03-14T03:23:18.816Z,0.50
2023-03-14T03:28:21.160Z,0.40
2023-03-14T03:33:24.728Z,0.25
2023-03-14T03:38:26.686Z,0.30
2023-03-14T03:43:30.103Z,0.13
2023-03-14T03:48:33.352Z,0.40
2023-03-14T03:53:38.068Z,0.35
2023-03-14T03:58:44.655Z,0.20
2023-03-14T04:03:46.491Z,0.10
2023-03-14T04:08:48.443Z,0.73
2023-03-14T04:14:10.442Z,0.15
2023-03-14T04:19:12.220Z,1.02
2023-03-14T04:24:14.630Z,0.35
2023-03-14T04:29:19.651Z,0.40
2023-03-14T04:34:22.405Z,0.63
2023-03-14T04:39:28.206Z,1.30
2023-03-14T04:44:40.130Z,1.25
2023-03-14T04:49:42.527Z,0.55
2023-03-14T04:54:47.010Z,3.00
2023-03-14T04:59:48.801Z,1.92
2023-03-14T05:05:04.385Z,2.58
2023-03-14T05:10:26.677Z,1.85
2023-03-14T05:15:49.119Z,1.75
2023-03-14T05:21:23.200Z,2.65
2023-03-14T05:26:45.460Z,1.75
2023-03-14T05:32:14.329Z,1.45
2023-03-14T05:37:38.779Z,2.97
2023-03-14T05:43:03.525Z,1.17
2023-03-14T05:48:14.698Z,2.28
2023-03-14T05:53:36.300Z,3.58
2023-03-14T05:58:56.440Z,2.55
2023-03-14T06:04:06.095Z,2.92
2023-03-14T06:09:08.656Z,2.95
2023-03-14T06:14:13.551Z,4.13
2023-03-14T06:19:19.112Z,3.38
2023-03-14T06:24:20.997Z,1.63
2023-03-14T06:29:25.768Z,3.78
2023-03-14T06:34:27.587Z,3.40
2023-03-14T06:39:29.743Z,3.35
2023-03-14T06:44:39.966Z,3.53
2023-03-14T06:49:41.816Z,4.53
2023-03-14T06:54:43.556Z,2.13
2023-03-14T06:59:45.268Z,1.52
2023-03-14T07:04:47.131Z,2.88
2023-03-14T07:09:49.338Z,3.63
2023-03-14T07:14:51.345Z,3.80
2023-03-14T07:19:53.580Z,2.28
2023-03-14T07:24:55.545Z,2.92
2023-03-14T07:29:59.079Z,1.55
2023-03-14T07:35:00.787Z,3.72
2023-03-14T07:40:02.626Z,1.30
2023-03-14T07:45:07.861Z,2.42
2023-03-14T07:50:10.565Z,3.28
2023-03-14T07:55:14.440Z,2.22
2023-03-14T08:00:16.444Z,2.63
2023-03-14T08:05:18.160Z,1.50
2023-03-14T08:10:26.107Z,2.78
2023-03-14T08:15:30.688Z,4.38
2023-03-14T08:20:32.813Z,1.60
2023-03-14T08:25:35.271Z,1.05
2023-03-14T08:30:37.152Z,2.95
2023-03-14T08:35:39.713Z,1.15
2023-03-14T08:40:41.424Z,1.25
2023-03-14T08:45:43.098Z,1.90
2023-03-14T08:50:44.805Z,0.95
2023-03-14T08:55:46.471Z,1.25
2023-03-14T09:00:48.167Z,1.58
2023-03-14T09:05:51.136Z,1.10
2023-03-14T09:10:52.989Z,1.63
2023-03-14T09:15:56.274Z,4.38
2023-03-14T09:20:58.145Z,2.25
2023-03-14T09:26:01.192Z,1.25
2023-03-14T09:31:29.644Z,2.45
2023-03-14T09:36:31.553Z,1.15
2023-03-14T09:41:37.556Z,2.05
2023-03-14T09:46:41.141Z,1.13
2023-03-14T09:51:44.866Z,3.45
2023-03-14T09:56:49.689Z,1.65
2023-03-14T10:01:51.571Z,1.70
2023-03-14T10:06:53.343Z,0.80
2023-03-14T10:11:57.727Z,0.35
2023-03-14T10:17:11.140Z,1.48
2023-03-14T10:22:16.097Z,1.20
2023-03-14T10:27:30.857Z,0.82
2023-03-14T10:32:42.378Z,1.65
2023-03-14T10:38:03.194Z,0.70
2023-03-14T10:43:07.341Z,0.75
2023-03-14T10:48:32.243Z,1.25
2023-03-14T10:53:41.028Z,1.33
2023-03-14T10:58:47.626Z,1.45
2023-03-14T11:04:19.957Z,1.52
2023-03-14T11:09:37.422Z,1.10
2023-03-14T11:14:44.517Z,0.95
2023-03-14T11:20:18.571Z,1.73
2023-03-14T11:25:34.043Z,1.33
2023-03-14T11:30:53.355Z,1.48
2023-03-14T11:36:04.430Z,1.27
2023-03-14T11:41:20.694Z,1.70
2023-03-14T11:46:27.872Z,0.95
2023-03-14T11:51:35.577Z,1.75
2023-03-14T11:56:58.330Z,2.20
2023-03-14T12:02:55.740Z,2.97
2023-03-14T12:08:09.673Z,1.27
2023-03-14T12:13:13.061Z,1.02
2023-03-14T12:18:22.444Z,2.20
2023-03-14T12:23:26.052Z,2.90
2023-03-14T12:28:36.848Z,1.88
2023-03-14T12:33:38.647Z,4.72
2023-03-14T12:39:02.505Z,0.28
2023-03-14T12:44:30.553Z,1.60
2023-03-14T12:49:36.700Z,0.45
2023-03-14T12:54:50.340Z,1.08
2023-03-14T13:00:08.279Z,0.43
2023-03-14T13:05:25.965Z,1.00
2023-03-14T13:10:40.363Z,1.27
2023-03-14T13:15:45.692Z,0.80
2023-03-14T13:20:54.737Z,0.98
2023-03-14T13:25:58.046Z,0.90
2023-03-14T13:31:02.859Z,0.65
2023-03-14T13:36:06.693Z,0.20
2023-03-14T13:41:09.286Z,0.82
2023-03-14T13:46:26.301Z,0.70
2023-03-14T13:51:32.463Z,1.83
2023-03-14T13:56:34.624Z,1.57
2023-03-14T14:01:39.641Z,0.32
2023-03-14T14:06:52.477Z,0.63
2023-03-14T14:12:15.062Z,1.75
2023-03-14T14:17:22.820Z,0.22
2023-03-14T14:22:25.551Z,1.20
2023-03-14T14:27:37.856Z,0.28
2023-03-14T14:32:41.590Z,0.20
2023-03-14T14:37:45.440Z,1.13
2023-03-14T14:42:48.237Z,0.32
2023-03-14T14:48:03.016Z,0.60
2023-03-14T14:53:30.929Z,0.10
2023-03-14T14:58:40.976Z,2.30
2023-03-14T15:03:45.137Z,0.15
2023-03-14T15:08:49.967Z,0.77
2023-03-14T15:13:53.589Z,0.68
2023-03-14T15:18:57.465Z,1.13
2023-03-14T15:24:00.319Z,28.35
2023-03-14T15:29:02.040Z,1.00
2023-03-14T15:34:04.309Z,5.63
2023-03-14T15:39:07.781Z,2.28
2023-03-14T15:44:09.542Z,0.77
2023-03-14T15:49:11.193Z,0.38
2023-03-14T15:54:12.798Z,3.50
2023-03-14T15:59:14.474Z,0.95
2023-03-14T16:04:16.399Z,0.45
2023-03-14T16:09:18.187Z,0.50
2023-03-14T16:14:19.792Z,0.47
2023-03-14T16:19:21.406Z,1.60
2023-03-14T16:24:23.065Z,0.20
2023-03-14T16:29:24.820Z,0.52
2023-03-14T16:34:27.135Z,0.52
2023-03-14T16:39:32.200Z,0.82
2023-03-14T16:44:33.853Z,0.85
2023-03-14T16:49:35.688Z,0.50
2023-03-14T16:54:37.473Z,1.10
2023-03-14T16:59:39.092Z,1.02
2023-03-14T17:04:42.173Z,0.45
2023-03-14T17:09:43.908Z,1.48
2023-03-14T17:14:45.734Z,0.60
2023-03-14T17:19:47.669Z,0.20
2023-03-14T17:24:49.385Z,0.35
2023-03-14T17:29:51.245Z,0.50
2023-03-14T17:34:54.549Z,0.85
2023-03-14T17:39:56.497Z,0.30
2023-03-14T17:44:58.745Z,0.55
2023-03-14T17:50:05.091Z,0.35
2023-03-14T17:55:07.572Z,0.33
2023-03-14T18:00:11.641Z,1.90
2023-03-14T18:05:13.295Z,2.58
2023-03-14T18:10:17.134Z,3.60
2023-03-14T18:15:18.828Z,2.88
2023-03-14T18:20:20.680Z,3.65
2023-03-14T18:25:22.729Z,4.38
2023-03-14T18:30:24.383Z,5.15
2023-03-14T18:35:26.086Z,1.88
2023-03-14T18:40:27.813Z,1.65
2023-03-14T18:45:31.011Z,1.10
2023-03-14T18:50:32.755Z,1.67
2023-03-14T18:55:34.474Z,3.45
2023-03-14T19:00:37.599Z,3.50
2023-03-14T19:05:43.732Z,2.08
2023-03-14T19:10:45.614Z,4.10
2023-03-14T19:15:47.860Z,6.00
2023-03-14T19:21:25.384Z,3.38
2023-03-14T19:26:29.846Z,3.33
2023-03-14T19:31:31.741Z,4.50
2023-03-14T19:36:36.351Z,6.20
2023-03-14T19:41:38.133Z,9.52
2023-03-14T19:46:39.796Z,9.45
2023-03-14T19:51:41.577Z,9.82
2023-03-14T19:56:43.307Z,6.63
2023-03-14T20:01:48.885Z,7.75
2023-03-14T20:06:53.409Z,10.52
2023-03-14T20:11:55.061Z,7.93
2023-03-14T20:16:56.855Z,5.13
2023-03-14T20:21:58.647Z,8.05
2023-03-14T20:27:00.998Z,9.38
2023-03-14T20:32:03.032Z,9.65
2023-03-14T20:37:04.769Z,8.43
2023-03-14T20:42:06.495Z,8.07
2023-03-14T20:47:08.193Z,11.65
2023-03-14T20:52:11.950Z,7.07
2023-03-14T20:57:15.365Z,5.50
2023-03-14T21:02:17.033Z,11.43
2023-03-14T21:07:20.222Z,7.43
2023-03-14T21:12:21.910Z,9.73
2023-03-14T21:17:23.630Z,13.27
2023-03-14T21:22:29.535Z,10.63
2023-03-14T21:27:31.289Z,10.13
2023-03-14T21:32:33.216Z,9.48
2023-03-14T21:37:34.997Z,8.00
2023-03-14T21:42:39.615Z,4.45
2023-03-14T21:47:45.225Z,11.75
2023-03-14T21:52:47.869Z,9.38
2023-03-14T21:57:49.597Z,6.00
2023-03-14T22:03:12.473Z,19.00
2023-03-14T22:08:17.703Z,13.82
2023-03-14T22:13:20.716Z,5.88
2023-03-14T22:18:22.392Z,8.05
2023-03-14T22:23:24.087Z,9.38
2023-03-14T22:28:25.756Z,7.57
2023-03-14T22:33:27.401Z,12.45
2023-03-14T22:38:29.112Z,8.90
2023-03-14T22:43:31.746Z,9.93
2023-03-14T22:48:34.146Z,5.88
2023-03-14T22:53:36.944Z,7.07
2023-03-14T22:58:38.684Z,8.27
2023-03-14T23:03:40.298Z,13.15
2023-03-14T23:08:42.195Z,13.75
2023-03-14T23:13:43.964Z,4.65
2023-03-14T23:18:45.658Z,5.63
2023-03-14T23:23:48.217Z,7.07
2023-03-14T23:28:50.905Z,10.95
2023-03-14T23:33:52.580Z,6.65
2023-03-14T23:38:54.256Z,14.93
2023-03-14T23:43:55.941Z,6.20
2023-03-14T23:48:58.318Z,8.65
2023-03-14T23:53:59.960Z,9.43
2023-03-14T23:59:01.705Z,8.40
